Time,TemperatureF,DewpointF,PressureIn,WindDirection,WindDirectionDegrees,WindSpeedMPH,WindSpeedGustMPH,Humidity,HourlyPrecipIn,Conditions,Clouds,dailyrainin,SoftwareType,DateUTC
2013-09-28 00:01:00,55.0,33.0,30.03,ESE,112,0.0,0.0,43,0.00,,---,0.00,VWS V14.01,2013-09-28 07:01:00,
2013-09-28 00:06:00,54.9,32.8,30.03,ESE,112,0.0,0.0,43,0.00,,---,0.00,VWS V14.01,2013-09-28 07:06:00,
2013-09-28 00:11:00,54.7,32.6,30.03,ESE,112,0.0,0.0,43,0.00,,---,0.00,VWS V14.01,2013-09-28 07:11:00,
2013-09-28 00:16:00,54.5,32.5,30.03,ESE,112,0.0,0.0,43,0.00,,---,0.00,VWS V14.01,2013-09-28 07:16:00,
2013-09-28 00:21:00,54.5,32.5,30.03,ESE,112,0.0,0.0,43,0.00,,---,0.00,VWS V14.01,2013-09-28 07:21:00,
2013-09-28 00:26:00,54.3,32.3,30.03,ESE,112,0.0,0.0,43,0.00,,---,0.00,VWS V14.01,2013-09-28 07:26:00,
2013-09-28 00:31:00,54.3,32.3,30.03,ESE,112,0.0,0.0,43,0.00,,---,0.00,VWS V14.01,2013-09-28 07:31:00,
2013-09-28 00:36:00,54.3,32.3,30.03,ESE,112,0.0,0.0,43,0.00,,---,0.00,VWS V14.01,2013-09-28 07:36:00,
2013-09-28 00:41:00,54.3,32.3,30.03,ESE,112,0.0,0.0,43,0.00,,---,0.00,VWS V14.01,2013-09-28 07:41:00,
2013-09-28 00:46:00,54.3,32.3,30.03,ESE,112,0.0,0.0,43,0.00,,---,0.00,VWS V14.01,2013-09-28 07:46:00,
2013-09-28 00:51:00,53.4,32.6,30.03,ESE,112,0.0,0.0,45,0.00,,---,0.00,VWS V14.01,2013-09-28 07:51:00,
2013-09-28 00:56:00,53.2,32.5,30.03,East,90,0.9,0.9,45,0.00,,---,0.00,VWS V14.01,2013-09-28 07:56:00,
2013-09-28 01:01:00,53.2,32.5,30.03,East,90,0.0,0.0,45,0.00,,---,0.00,VWS V14.01,2013-09-28 08:01:00,
2013-09-28 01:06:00,53.1,32.3,30.03,East,90,0.0,0.0,45,0.00,,---,0.00,VWS V14.01,2013-09-28 08:06:00,
2013-09-28 01:12:00,53.1,32.3,30.03,ENE,68,0.0,0.0,45,0.00,,---,0.00,VWS V14.01,2013-09-28 08:12:00,
2013-09-28 01:17:00,52.9,32.1,30.03,ENE,68,0.0,0.0,45,0.00,,---,0.00,VWS V14.01,2013-09-28 08:17:00,
2013-09-28 01:22:00,52.9,32.1,30.03,East,90,0.0,0.0,45,0.00,,---,0.00,VWS V14.01,2013-09-28 08:22:00,
2013-09-28 01:27:00,52.7,32.5,30.03,ESE,112,0.0,0.0,46,0.00,,---,0.00,VWS V14.01,2013-09-28 08:27:00,
2013-09-28 01:32:00,52.5,32.3,30.03,East,90,0.0,0.0,46,0.00,,---,0.00,VWS V14.01,2013-09-28 08:32:00,
2013-09-28 01:37:00,52.5,32.3,30.03,ENE,68,1.6,1.6,46,0.00,,---,0.00,VWS V14.01,2013-09-28 08:37:00,
2013-09-28 01:42:00,52.3,32.2,30.03,East,90,0.0,1.6,46,0.00,,---,0.00,VWS V14.01,2013-09-28 08:42:00,
2013-09-28 01:47:00,52.3,32.2,30.03,East,90,0.0,0.0,46,0.00,,---,0.00,VWS V14.01,2013-09-28 08:47:00,
2013-09-28 01:52:00,52.2,32.0,30.03,SSE,158,0.0,0.0,46,0.00,,---,0.00,VWS V14.01,2013-09-28 08:52:00,
2013-09-28 01:57:00,52.2,32.0,30.03,ESE,112,0.0,0.0,46,0.00,,---,0.00,VWS V14.01,2013-09-28 08:57:00,
2013-09-28 02:02:00,52.2,32.0,30.03,SE,135,0.0,0.0,46,0.00,,---,0.00,VWS V14.01,2013-09-28 09:02:00,
2013-09-28 02:07:00,52.0,32.4,30.03,SE,135,0.0,0.0,47,0.00,,---,0.00,VWS V14.01,2013-09-28 09:07:00,
2013-09-28 02:12:00,52.0,32.4,30.03,SE,135,0.0,0.0,47,0.00,,---,0.00,VWS V14.01,2013-09-28 09:12:00,
2013-09-28 02:17:00,51.8,32.2,30.03,NW,315,0.0,0.0,47,0.00,,---,0.00,VWS V14.01,2013-09-28 09:17:00,
2013-09-28 02:22:00,51.8,32.2,30.03,ESE,112,1.6,1.6,47,0.00,,---,0.00,VWS V14.01,2013-09-28 09:22:00,
2013-09-28 02:27:00,51.6,32.1,30.03,East,90,0.0,1.1,47,0.00,,---,0.00,VWS V14.01,2013-09-28 09:27:00,
2013-09-28 02:32:00,51.6,32.6,30.03,East,90,0.0,0.0,48,0.00,,---,0.00,VWS V14.01,2013-09-28 09:32:00,
2013-09-28 02:37:00,51.6,32.6,30.03,SSE,158,0.0,0.0,48,0.00,,---,0.00,VWS V14.01,2013-09-28 09:37:00,
2013-09-28 02:42:00,51.4,32.4,30.03,East,90,0.0,0.0,48,0.00,,---,0.00,VWS V14.01,2013-09-28 09:42:00,
2013-09-28 02:47:00,51.3,32.3,30.03,East,90,0.0,0.0,48,0.00,,---,0.00,VWS V14.01,2013-09-28 09:47:00,
2013-09-28 02:52:00,51.3,32.3,30.03,NW,315,1.6,1.6,48,0.00,,---,0.00,VWS V14.01,2013-09-28 09:52:00,
2013-09-28 02:57:00,51.1,32.1,30.03,NW,315,1.6,1.6,48,0.00,,---,0.00,VWS V14.01,2013-09-28 09:57:00,
2013-09-28 03:02:00,50.9,31.9,30.03,ENE,68,0.0,1.6,48,0.00,,---,0.00,VWS V14.01,2013-09-28 10:02:00,
2013-09-28 03:07:00,50.9,31.9,30.03,NE,45,1.1,1.1,48,0.00,,---,0.00,VWS V14.01,2013-09-28 10:07:00,
2013-09-28 03:12:00,50.9,31.9,30.03,ENE,68,1.6,1.6,48,0.00,,---,0.00,VWS V14.01,2013-09-28 10:12:00,
2013-09-28 03:17:00,50.7,31.8,30.03,East,90,0.9,1.6,48,0.00,,---,0.00,VWS V14.01,2013-09-28 10:17:00,
2013-09-28 03:22:00,50.7,32.3,30.03,East,90,0.9,0.9,49,0.00,,---,0.00,VWS V14.01,2013-09-28 10:22:00,
2013-09-28 03:27:00,50.5,32.1,30.03,South,180,0.0,0.9,49,0.00,,---,0.00,VWS V14.01,2013-09-28 10:27:00,
2013-09-28 03:32:00,50.4,31.9,30.03,South,180,0.0,0.0,49,0.00,,---,0.00,VWS V14.01,2013-09-28 10:32:00,
2013-09-28 03:37:00,50.4,31.9,30.00,East,90,1.6,1.6,49,0.00,,---,0.00,VWS V14.01,2013-09-28 10:37:00,
2013-09-28 03:42:00,50.4,31.9,30.00,ESE,112,2.2,2.2,49,0.00,,---,0.00,VWS V14.01,2013-09-28 10:42:00,
2013-09-28 03:47:00,50.4,31.9,30.00,ESE,112,2.2,2.2,49,0.00,,---,0.00,VWS V14.01,2013-09-28 10:47:00,
2013-09-28 03:52:00,50.4,31.9,30.00,NNE,22,0.0,2.2,49,0.00,,---,0.00,VWS V14.01,2013-09-28 10:52:00,
2013-09-28 03:57:00,50.2,31.8,30.00,NNE,22,0.0,0.0,49,0.00,,---,0.00,VWS V14.01,2013-09-28 10:57:00,
2013-09-28 04:02:00,50.0,31.6,30.00,NNE,22,0.0,0.0,49,0.00,,---,0.00,VWS V14.01,2013-09-28 11:02:00,
2013-09-28 04:07:00,49.8,31.9,30.03,NNE,22,0.0,0.0,50,0.00,,---,0.00,VWS V14.01,2013-09-28 11:07:00,
2013-09-28 04:12:00,49.8,31.9,30.03,ENE,68,2.2,2.2,50,0.00,,---,0.00,VWS V14.01,2013-09-28 11:12:00,
2013-09-28 04:18:00,49.8,31.9,30.03,East,90,1.3,2.2,50,0.00,,---,0.00,VWS V14.01,2013-09-28 11:18:00,
2013-09-28 04:23:00,49.8,31.9,30.03,NE,45,0.0,1.3,50,0.00,,---,0.00,VWS V14.01,2013-09-28 11:23:00,
2013-09-28 04:28:00,49.6,31.8,30.03,East,90,0.0,0.0,50,0.00,,---,0.00,VWS V14.01,2013-09-28 11:28:00,
2013-09-28 04:33:00,49.6,31.8,30.03,ESE,112,1.6,1.6,50,0.00,,---,0.00,VWS V14.01,2013-09-28 11:33:00,
2013-09-28 04:38:00,49.5,32.1,30.03,South,180,0.0,1.6,51,0.00,,---,0.00,VWS V14.01,2013-09-28 11:38:00,
2013-09-28 04:43:00,49.3,31.9,30.03,South,180,0.0,0.0,51,0.00,,---,0.00,VWS V14.01,2013-09-28 11:43:00,
2013-09-28 04:48:00,49.3,31.9,30.03,SSE,158,1.3,2.0,51,0.00,,---,0.00,VWS V14.01,2013-09-28 11:48:00,
2013-09-28 04:53:00,49.3,31.9,30.03,SSE,158,0.9,1.3,51,0.00,,---,0.00,VWS V14.01,2013-09-28 11:53:00,
2013-09-28 04:58:00,49.3,31.9,30.03,SSE,158,0.9,0.9,51,0.00,,---,0.00,VWS V14.01,2013-09-28 11:58:00,
2013-09-28 05:03:00,49.3,32.4,30.03,SE,135,1.3,1.3,52,0.00,,---,0.00,VWS V14.01,2013-09-28 12:03:00,
2013-09-28 05:08:00,49.3,32.4,30.00,SE,135,1.3,1.3,52,0.00,,---,0.00,VWS V14.01,2013-09-28 12:08:00,
2013-09-28 05:13:00,49.3,32.4,30.00,SE,135,1.3,1.3,52,0.00,,---,0.00,VWS V14.01,2013-09-28 12:13:00,
2013-09-28 05:18:00,49.3,32.4,30.00,SE,135,1.3,1.3,52,0.00,,---,0.00,VWS V14.01,2013-09-28 12:18:00,
2013-09-28 05:23:00,49.1,32.2,30.03,SE,135,1.3,1.3,52,0.00,,---,0.00,VWS V14.01,2013-09-28 12:23:00,
2013-09-28 05:28:00,48.9,32.1,30.03,SE,135,1.3,1.3,52,0.00,,---,0.00,VWS V14.01,2013-09-28 12:28:00,
2013-09-28 05:33:00,48.7,31.9,30.03,SE,135,1.3,1.3,52,0.00,,---,0.00,VWS V14.01,2013-09-28 12:33:00,
2013-09-28 05:38:00,48.7,31.9,30.03,SE,135,1.3,1.3,52,0.00,,---,0.00,VWS V14.01,2013-09-28 12:38:00,
2013-09-28 05:43:00,48.7,31.9,30.03,SE,135,1.3,1.3,52,0.00,,---,0.00,VWS V14.01,2013-09-28 12:43:00,
2013-09-28 05:48:00,48.6,31.8,30.03,SE,135,1.3,1.3,52,0.00,,---,0.00,VWS V14.01,2013-09-28 12:48:00,
2013-09-28 05:53:00,48.6,31.8,30.03,NNE,22,0.0,0.0,52,0.00,,---,0.00,VWS V14.01,2013-09-28 12:53:00,
2013-09-28 05:58:00,48.4,31.6,30.03,NE,45,0.0,0.0,52,0.00,,---,0.00,VWS V14.01,2013-09-28 12:58:00,
2013-09-28 06:03:00,48.4,31.6,30.03,NE,45,0.0,0.0,52,0.00,,---,0.00,VWS V14.01,2013-09-28 13:03:00,
2013-09-28 06:08:00,48.2,31.4,30.03,NE,45,0.0,0.0,52,0.00,,---,0.00,VWS V14.01,2013-09-28 13:08:00,
2013-09-28 06:13:00,48.2,31.9,30.03,SE,135,0.0,0.0,53,0.00,,---,0.00,VWS V14.01,2013-09-28 13:13:00,
2013-09-28 06:18:00,48.2,31.9,30.03,SE,135,0.0,0.0,53,0.00,,---,0.00,VWS V14.01,2013-09-28 13:18:00,
2013-09-28 06:23:00,48.2,31.9,30.03,SE,135,2.5,2.5,53,0.00,,---,0.00,VWS V14.01,2013-09-28 13:23:00,
2013-09-28 06:28:00,48.2,31.9,30.03,SE,135,1.1,2.5,53,0.00,,---,0.00,VWS V14.01,2013-09-28 13:28:00,
2013-09-28 06:33:00,48.2,31.9,30.03,ESE,112,1.3,1.3,53,0.00,,---,0.00,VWS V14.01,2013-09-28 13:33:00,
2013-09-28 06:38:00,48.2,31.9,30.03,East,90,1.6,1.6,53,0.00,,---,0.00,VWS V14.01,2013-09-28 13:38:00,
2013-09-28 06:43:00,48.0,31.7,30.03,East,90,1.6,1.6,53,0.00,,---,0.00,VWS V14.01,2013-09-28 13:43:00,
2013-09-28 06:48:00,48.0,32.2,30.03,East,90,1.6,1.6,54,0.00,,---,0.00,VWS V14.01,2013-09-28 13:48:00,
2013-09-28 06:53:00,47.8,32.0,30.03,East,90,1.6,1.6,54,0.00,,---,0.00,VWS V14.01,2013-09-28 13:53:00,
2013-09-28 06:58:00,47.7,31.9,30.03,East,90,1.6,1.6,54,0.00,,---,0.00,VWS V14.01,2013-09-28 13:58:00,
2013-09-28 07:03:00,47.7,31.9,30.03,East,90,0.0,1.6,54,0.00,,---,0.00,VWS V14.01,2013-09-28 14:03:00,
2013-09-28 07:08:00,47.5,31.7,30.03,East,90,0.0,0.0,54,0.00,,---,0.00,VWS V14.01,2013-09-28 14:08:00,
2013-09-28 07:13:00,47.5,31.7,30.03,East,90,0.0,0.0,54,0.00,,---,0.00,VWS V14.01,2013-09-28 14:13:00,
2013-09-28 07:18:00,47.5,31.7,30.03,East,90,0.0,0.0,54,0.00,,---,0.00,VWS V14.01,2013-09-28 14:18:00,
2013-09-28 07:23:00,47.5,32.1,30.03,East,90,0.0,0.0,55,0.00,,---,0.00,VWS V14.01,2013-09-28 14:23:00,
2013-09-28 07:28:00,47.5,32.1,30.03,East,90,0.0,0.0,55,0.00,,---,0.00,VWS V14.01,2013-09-28 14:28:00,
2013-09-28 07:33:00,47.5,32.1,30.03,SSE,158,1.1,1.1,55,0.00,,---,0.00,VWS V14.01,2013-09-28 14:33:00,
2013-09-28 07:38:00,47.5,32.1,30.03,SSE,158,1.1,1.1,55,0.00,,---,0.00,VWS V14.01,2013-09-28 14:38:00,
2013-09-28 07:43:00,47.7,32.3,30.03,South,180,0.0,1.1,55,0.00,,---,0.00,VWS V14.01,2013-09-28 14:43:00,
2013-09-28 07:48:00,47.7,32.3,30.03,South,180,0.0,0.0,55,0.00,,---,0.00,VWS V14.01,2013-09-28 14:48:00,
2013-09-28 07:53:00,47.7,32.3,30.03,South,180,0.0,0.0,55,0.00,,---,0.00,VWS V14.01,2013-09-28 14:53:00,
2013-09-28 07:58:00,47.7,32.3,30.03,South,180,0.0,0.0,55,0.00,,---,0.00,VWS V14.01,2013-09-28 14:58:00,
2013-09-28 08:03:00,47.8,32.5,30.03,South,180,0.0,0.0,55,0.00,,---,0.00,VWS V14.01,2013-09-28 15:03:00,
2013-09-28 08:08:00,47.8,32.5,30.03,NW,315,1.6,1.6,55,0.00,,---,0.00,VWS V14.01,2013-09-28 15:08:00,
2013-09-28 08:13:00,48.0,32.6,30.03,NW,315,1.3,1.3,55,0.00,,---,0.00,VWS V14.01,2013-09-28 15:13:00,
2013-09-28 08:18:00,48.0,32.6,30.03,NW,315,1.3,1.3,55,0.00,,---,0.00,VWS V14.01,2013-09-28 15:18:00,
2013-09-28 08:23:00,48.2,32.8,30.03,WNW,292,2.0,2.0,55,0.00,,---,0.00,VWS V14.01,2013-09-28 15:23:00,
2013-09-28 08:28:00,48.4,33.0,30.03,NW,315,0.0,2.0,55,0.00,,---,0.00,VWS V14.01,2013-09-28 15:28:00,
2013-09-28 08:33:00,48.6,33.1,30.03,NNW,338,1.6,1.6,55,0.00,,---,0.00,VWS V14.01,2013-09-28 15:33:00,
2013-09-28 08:38:00,48.7,33.3,30.06,NNW,338,1.6,1.6,55,0.00,,---,0.00,VWS V14.01,2013-09-28 15:38:00,
2013-09-28 08:43:00,48.9,33.5,30.06,NNW,338,1.6,1.6,55,0.00,,---,0.00,VWS V14.01,2013-09-28 15:43:00,
2013-09-28 08:48:00,49.1,33.7,30.06,NNW,338,1.6,1.6,55,0.00,,---,0.00,VWS V14.01,2013-09-28 15:48:00,
2013-09-28 08:53:00,49.3,33.8,30.06,NNW,338,1.6,1.6,55,0.00,,---,0.00,VWS V14.01,2013-09-28 15:53:00,
2013-09-28 08:58:00,49.6,34.2,30.06,NW,315,1.1,1.1,55,0.00,,---,0.00,VWS V14.01,2013-09-28 15:58:00,
2013-09-28 09:03:00,49.8,34.3,30.06,NW,315,1.1,1.1,55,0.00,,---,0.00,VWS V14.01,2013-09-28 16:03:00,
2013-09-28 09:08:00,50.0,34.0,30.06,NW,315,1.1,1.1,54,0.00,,---,0.00,VWS V14.01,2013-09-28 16:08:00,
2013-09-28 09:13:00,50.4,34.4,30.06,NW,315,1.1,1.1,54,0.00,,---,0.00,VWS V14.01,2013-09-28 16:13:00,
2013-09-28 09:18:00,50.7,34.7,30.06,NW,315,1.1,1.1,54,0.00,,---,0.00,VWS V14.01,2013-09-28 16:18:00,
2013-09-28 09:23:00,51.1,35.0,30.06,NW,315,1.1,1.1,54,0.00,,---,0.00,VWS V14.01,2013-09-28 16:23:00,
2013-09-28 09:28:00,51.6,35.5,30.06,NW,315,1.1,1.1,54,0.00,,---,0.00,VWS V14.01,2013-09-28 16:28:00,
2013-09-28 09:33:00,51.8,35.2,30.06,North,0,0.0,0.0,53,0.00,,---,0.00,VWS V14.01,2013-09-28 16:33:00,
2013-09-28 09:38:00,52.2,35.6,30.06,NNE,22,1.6,1.6,53,0.00,,---,0.00,VWS V14.01,2013-09-28 16:38:00,
2013-09-28 09:43:00,52.5,35.9,30.06,NNE,22,1.6,1.6,53,0.00,,---,0.00,VWS V14.01,2013-09-28 16:43:00,
2013-09-28 09:48:00,52.9,36.2,30.06,NW,315,1.6,1.6,53,0.00,,---,0.00,VWS V14.01,2013-09-28 16:48:00,
2013-09-28 09:53:00,53.2,36.6,30.06,NW,315,1.6,1.6,53,0.00,,---,0.00,VWS V14.01,2013-09-28 16:53:00,
2013-09-28 09:58:00,53.8,37.1,30.06,NE,45,0.0,0.0,53,0.00,,---,0.00,VWS V14.01,2013-09-28 16:58:00,
2013-09-28 10:03:00,54.5,37.2,30.06,NE,45,0.0,0.0,52,0.00,,---,0.00,VWS V14.01,2013-09-28 17:03:00,
2013-09-28 10:08:00,54.9,37.6,30.06,NE,45,0.0,0.0,52,0.00,,---,0.00,VWS V14.01,2013-09-28 17:08:00,
2013-09-28 10:13:00,55.6,38.2,30.06,WNW,292,1.6,1.6,52,0.00,,---,0.00,VWS V14.01,2013-09-28 17:13:00,
2013-09-28 10:18:00,56.1,38.8,30.06,WNW,292,1.6,1.6,52,0.00,,---,0.00,VWS V14.01,2013-09-28 17:18:00,
2013-09-28 10:23:00,56.7,38.8,30.06,WNW,292,1.6,1.6,51,0.00,,---,0.00,VWS V14.01,2013-09-28 17:23:00,
2013-09-28 10:28:00,57.2,39.2,30.06,NW,315,2.7,2.7,51,0.00,,---,0.00,VWS V14.01,2013-09-28 17:28:00,
2013-09-28 10:33:00,57.7,39.8,30.06,North,0,1.6,1.6,51,0.00,,---,0.00,VWS V14.01,2013-09-28 17:33:00,
2013-09-28 10:38:00,58.1,40.1,30.06,North,0,1.6,1.6,51,0.00,,---,0.00,VWS V14.01,2013-09-28 17:38:00,
2013-09-28 10:43:00,58.8,40.2,30.06,North,0,1.6,1.6,50,0.00,,---,0.00,VWS V14.01,2013-09-28 17:43:00,
2013-09-28 10:49:00,59.5,40.9,30.06,North,0,1.6,1.6,50,0.00,,---,0.00,VWS V14.01,2013-09-28 17:49:00,
2013-09-28 10:54:00,59.9,41.2,30.06,North,0,1.6,1.6,50,0.00,,---,0.00,VWS V14.01,2013-09-28 17:54:00,
2013-09-28 10:59:00,60.4,41.2,30.06,North,0,1.6,1.6,49,0.00,,---,0.00,VWS V14.01,2013-09-28 17:59:00,
2013-09-28 11:04:00,61.0,41.7,30.06,North,0,1.6,1.6,49,0.00,,---,0.00,VWS V14.01,2013-09-28 18:04:00,
2013-09-28 11:09:00,61.3,42.0,30.06,North,0,1.6,1.6,49,0.00,,---,0.00,VWS V14.01,2013-09-28 18:09:00,
2013-09-28 11:14:00,61.7,42.4,30.06,North,0,1.6,1.6,49,0.00,,---,0.00,VWS V14.01,2013-09-28 18:14:00,
2013-09-28 11:19:00,62.6,42.7,30.06,WNW,292,2.7,2.7,48,0.00,,---,0.00,VWS V14.01,2013-09-28 18:19:00,
2013-09-28 11:24:00,63.1,43.2,30.06,North,0,2.0,2.0,48,0.00,,---,0.00,VWS V14.01,2013-09-28 18:24:00,
2013-09-28 11:29:00,63.7,43.6,30.06,North,0,2.0,2.0,48,0.00,,---,0.00,VWS V14.01,2013-09-28 18:29:00,
2013-09-28 11:34:00,64.2,44.1,30.06,North,0,2.0,2.0,48,0.00,,---,0.00,VWS V14.01,2013-09-28 18:34:00,
2013-09-28 11:39:00,64.8,44.1,30.06,West,270,2.5,2.5,47,0.00,,---,0.00,VWS V14.01,2013-09-28 18:39:00,
2013-09-28 11:44:00,65.3,44.6,30.06,West,270,2.5,2.5,47,0.00,,---,0.00,VWS V14.01,2013-09-28 18:44:00,
2013-09-28 11:49:00,65.7,44.9,30.06,WNW,292,2.9,2.9,47,0.00,,---,0.00,VWS V14.01,2013-09-28 18:49:00,
2013-09-28 11:54:00,66.4,45.0,30.06,WNW,292,4.9,4.9,46,0.00,,---,0.00,VWS V14.01,2013-09-28 18:54:00,
2013-09-28 11:59:00,67.5,45.4,30.06,West,270,3.1,4.9,45,0.00,,---,0.00,VWS V14.01,2013-09-28 18:59:00,
2013-09-28 12:06:00,68.4,45.6,30.06,NNW,338,2.5,2.9,44,0.00,,---,0.00,VWS V14.01,2013-09-28 19:06:00,
2013-09-28 12:11:00,68.7,46.0,30.06,NNW,338,2.9,2.9,44,0.00,,---,0.00,VWS V14.01,2013-09-28 19:11:00,
2013-09-28 12:16:00,69.1,46.3,30.03,NNW,338,2.5,2.9,44,0.00,,---,0.00,VWS V14.01,2013-09-28 19:16:00,
2013-09-28 12:21:00,69.8,46.9,30.03,NW,315,2.5,3.8,44,0.00,,---,0.00,VWS V14.01,2013-09-28 19:21:00,
2013-09-28 12:26:00,71.1,47.5,30.03,NNW,338,2.0,2.0,43,0.00,,---,0.00,VWS V14.01,2013-09-28 19:26:00,
2013-09-28 12:31:00,71.8,48.1,30.03,West,270,3.8,3.8,43,0.00,,---,0.00,VWS V14.01,2013-09-28 19:31:00,
2013-09-28 12:36:00,73.6,48.5,30.03,South,180,2.7,4.0,41,0.00,,---,0.00,VWS V14.01,2013-09-28 19:36:00,
2013-09-28 12:41:00,74.1,48.9,30.03,WNW,292,4.0,4.0,41,0.00,,---,0.00,VWS V14.01,2013-09-28 19:41:00,
2013-09-28 12:46:00,75.0,49.8,30.03,South,180,2.0,2.0,41,0.00,,---,0.00,VWS V14.01,2013-09-28 19:46:00,
2013-09-28 12:51:00,75.7,47.7,30.03,NW,315,4.0,6.0,37,0.00,,---,0.00,VWS V14.01,2013-09-28 19:51:00,
2013-09-28 12:56:00,76.3,49.5,30.03,WNW,292,4.0,4.0,39,0.00,,---,0.00,VWS V14.01,2013-09-28 19:56:00,
2013-09-28 13:01:00,76.8,50.0,30.03,NNW,338,3.1,4.3,39,0.00,,---,0.00,VWS V14.01,2013-09-28 20:01:00,
2013-09-28 13:06:00,77.2,49.6,30.03,North,0,4.7,4.7,38,0.00,,---,0.00,VWS V14.01,2013-09-28 20:06:00,
2013-09-28 13:11:00,77.7,50.1,30.03,SE,135,4.0,4.3,38,0.00,,---,0.00,VWS V14.01,2013-09-28 20:11:00,
2013-09-28 13:16:00,78.3,49.1,30.03,West,270,4.7,4.7,36,0.00,,---,0.00,VWS V14.01,2013-09-28 20:16:00,
2013-09-28 13:21:00,79.0,45.8,30.03,South,180,3.4,4.7,31,0.00,,---,0.00,VWS V14.01,2013-09-28 20:21:00,
2013-09-28 13:26:00,80.1,49.2,30.03,South,180,4.3,4.3,34,0.00,,---,0.00,VWS V14.01,2013-09-28 20:26:00,
2013-09-28 13:31:00,81.0,47.5,30.03,WNW,292,4.0,5.4,31,0.00,,---,0.00,VWS V14.01,2013-09-28 20:31:00,
2013-09-28 13:36:00,81.9,48.3,30.03,South,180,3.6,3.6,31,0.00,,---,0.00,VWS V14.01,2013-09-28 20:36:00,
2013-09-28 13:41:00,82.4,47.9,30.03,West,270,1.6,5.4,30,0.00,,---,0.00,VWS V14.01,2013-09-28 20:41:00,
2013-09-28 13:46:00,82.4,47.0,30.03,South,180,5.6,5.6,29,0.00,,---,0.00,VWS V14.01,2013-09-28 20:46:00,
2013-09-28 13:52:00,83.5,48.8,30.00,SSE,158,5.6,6.0,30,0.00,,---,0.00,VWS V14.01,2013-09-28 20:52:00,
2013-09-28 13:57:00,83.8,47.3,30.00,West,270,3.6,5.6,28,0.00,,---,0.00,VWS V14.01,2013-09-28 20:57:00,
2013-09-28 14:02:00,84.6,49.8,30.00,South,180,3.6,3.8,30,0.00,,---,0.00,VWS V14.01,2013-09-28 21:02:00,
2013-09-28 14:08:00,84.6,44.9,30.00,West,270,3.6,5.6,25,0.00,,---,0.00,VWS V14.01,2013-09-28 21:08:00,
2013-09-28 14:13:00,85.1,49.3,30.00,South,180,2.0,3.6,29,0.00,,---,0.00,VWS V14.01,2013-09-28 21:13:00,
2013-09-28 14:19:00,85.5,49.6,30.00,West,270,3.8,3.8,29,0.00,,---,0.00,VWS V14.01,2013-09-28 21:19:00,
2013-09-28 14:24:00,85.6,47.9,30.00,West,270,4.9,5.4,27,0.00,,---,0.00,VWS V14.01,2013-09-28 21:24:00,
2013-09-28 14:29:00,85.6,47.9,30.00,WNW,292,6.3,6.3,27,0.00,,---,0.00,VWS V14.01,2013-09-28 21:29:00,
2013-09-28 14:34:00,86.0,49.1,30.00,NW,315,2.9,3.8,28,0.00,,---,0.00,VWS V14.01,2013-09-28 21:34:00,
2013-09-28 14:39:00,86.4,49.4,30.00,NW,315,3.1,5.4,28,0.00,,---,0.00,VWS V14.01,2013-09-28 21:39:00,
2013-09-28 14:44:00,86.7,50.7,30.00,NW,315,7.8,7.8,29,0.00,,---,0.00,VWS V14.01,2013-09-28 21:44:00,
2013-09-28 14:49:00,86.7,50.7,30.00,South,180,3.1,3.1,29,0.00,,---,0.00,VWS V14.01,2013-09-28 21:49:00,
2013-09-28 14:54:00,86.2,48.3,30.00,South,180,7.8,7.8,27,0.00,,---,0.00,VWS V14.01,2013-09-28 21:54:00,
2013-09-28 14:59:00,86.4,49.4,30.00,West,270,2.9,4.7,28,0.00,,---,0.00,VWS V14.01,2013-09-28 21:59:00,
2013-09-28 15:04:00,86.9,49.9,30.00,West,270,3.8,3.8,28,0.00,,---,0.00,VWS V14.01,2013-09-28 22:04:00,
2013-09-28 15:09:00,86.4,48.5,30.00,South,180,3.8,3.8,27,0.00,,---,0.00,VWS V14.01,2013-09-28 22:09:00,
2013-09-28 15:14:00,86.0,45.0,30.00,South,180,5.4,5.6,24,0.00,,---,0.00,VWS V14.01,2013-09-28 22:14:00,
2013-09-28 15:19:00,85.5,46.7,30.00,West,270,3.4,3.4,26,0.00,,---,0.00,VWS V14.01,2013-09-28 22:19:00,
2013-09-28 15:24:00,85.6,45.8,30.00,WNW,292,2.0,3.1,25,0.00,,---,0.00,VWS V14.01,2013-09-28 22:24:00,
2013-09-28 15:29:00,84.7,45.1,30.00,North,0,4.7,4.7,25,0.00,,---,0.00,VWS V14.01,2013-09-28 22:29:00,
2013-09-28 15:34:00,84.4,40.2,30.00,SSE,158,5.4,5.4,21,0.00,,---,0.00,VWS V14.01,2013-09-28 22:34:00,
2013-09-28 15:39:00,85.1,44.3,30.00,South,180,4.3,5.6,24,0.00,,---,0.00,VWS V14.01,2013-09-28 22:39:00,
2013-09-28 15:44:00,85.1,44.3,30.00,SSE,158,4.7,4.7,24,0.00,,---,0.00,VWS V14.01,2013-09-28 22:44:00,
2013-09-28 15:49:00,84.7,44.0,30.00,NW,315,1.6,4.7,24,0.00,,---,0.00,VWS V14.01,2013-09-28 22:49:00,
2013-09-28 15:54:00,84.6,41.6,30.00,NE,45,3.8,4.9,22,0.00,,---,0.00,VWS V14.01,2013-09-28 22:54:00,
2013-09-28 15:59:00,85.1,45.4,30.00,South,180,4.7,4.7,25,0.00,,---,0.00,VWS V14.01,2013-09-28 22:59:00,
2013-09-28 16:04:00,85.3,45.5,30.00,West,270,3.8,3.8,25,0.00,,---,0.00,VWS V14.01,2013-09-28 23:04:00,
2013-09-28 16:09:00,85.3,43.3,30.00,South,180,5.8,5.8,23,0.00,,---,0.00,VWS V14.01,2013-09-28 23:09:00,
2013-09-28 16:14:00,85.1,45.4,30.00,West,270,4.7,4.7,25,0.00,,---,0.00,VWS V14.01,2013-09-28 23:14:00,
2013-09-28 16:19:00,84.6,44.9,30.00,South,180,6.0,6.0,25,0.00,,---,0.00,VWS V14.01,2013-09-28 23:19:00,
2013-09-28 16:24:00,84.4,43.7,30.00,West,270,2.0,3.6,24,0.00,,---,0.00,VWS V14.01,2013-09-28 23:24:00,
2013-09-28 16:29:00,84.2,41.3,30.00,West,270,3.1,4.3,22,0.00,,---,0.00,VWS V14.01,2013-09-28 23:29:00,
2013-09-28 16:34:00,83.8,41.0,30.00,West,270,5.6,5.6,22,0.00,,---,0.00,VWS V14.01,2013-09-28 23:34:00,
2013-09-28 16:39:00,83.5,41.8,30.00,WNW,292,4.7,4.7,23,0.00,,---,0.00,VWS V14.01,2013-09-28 23:39:00,
2013-09-28 16:44:00,83.5,42.9,30.00,WNW,292,3.4,4.0,24,0.00,,---,0.00,VWS V14.01,2013-09-28 23:44:00,
2013-09-28 16:49:00,82.4,39.8,30.00,West,270,2.7,4.3,22,0.00,,---,0.00,VWS V14.01,2013-09-28 23:49:00,
2013-09-28 16:55:00,82.2,42.9,30.00,SE,135,3.6,3.6,25,0.00,,---,0.00,VWS V14.01,2013-09-28 23:55:00,
2013-09-28 17:00:00,81.1,43.0,30.00,SE,135,5.4,5.4,26,0.00,,---,0.00,VWS V14.01,2013-09-29 00:00:00,
2013-09-28 17:05:00,80.4,43.4,30.00,NW,315,4.9,6.0,27,0.00,,---,0.00,VWS V14.01,2013-09-29 00:05:00,
2013-09-28 17:10:00,79.7,42.8,30.00,South,180,2.9,5.4,27,0.00,,---,0.00,VWS V14.01,2013-09-29 00:10:00,
2013-09-28 17:15:00,79.3,44.4,30.00,South,180,3.4,3.4,29,0.00,,---,0.00,VWS V14.01,2013-09-29 00:15:00,
2013-09-28 17:20:00,78.8,44.8,30.00,West,270,1.1,2.2,30,0.00,,---,0.00,VWS V14.01,2013-09-29 00:20:00,
2013-09-28 17:25:00,78.4,44.5,30.00,South,180,3.8,3.8,30,0.00,,---,0.00,VWS V14.01,2013-09-29 00:25:00,
2013-09-28 17:30:00,78.3,45.2,30.00,ENE,68,1.3,3.8,31,0.00,,---,0.00,VWS V14.01,2013-09-29 00:30:00,
2013-09-28 17:35:00,77.7,44.7,30.00,West,270,3.1,5.4,31,0.00,,---,0.00,VWS V14.01,2013-09-29 00:35:00,
2013-09-28 17:40:00,76.8,43.9,30.00,West,270,3.8,3.8,31,0.00,,---,0.00,VWS V14.01,2013-09-29 00:40:00,
2013-09-28 17:45:00,76.5,44.4,30.00,South,180,2.5,2.5,32,0.00,,---,0.00,VWS V14.01,2013-09-29 00:45:00,
2013-09-28 17:52:00,75.7,43.8,30.00,SE,135,3.6,5.4,32,0.00,,---,0.00,VWS V14.01,2013-09-29 00:52:00,
2013-09-28 17:57:00,74.7,43.7,30.00,ENE,68,3.6,5.4,33,0.00,,---,0.00,VWS V14.01,2013-09-29 00:57:00,
2013-09-28 18:02:00,74.3,44.1,30.00,ESE,112,2.0,3.6,34,0.00,,---,0.00,VWS V14.01,2013-09-29 01:02:00,
2013-09-28 18:08:00,73.8,43.7,30.00,West,270,4.0,4.0,34,0.00,,---,0.00,VWS V14.01,2013-09-29 01:08:00,
2013-09-28 18:13:00,73.2,44.0,30.00,East,90,0.9,5.8,35,0.00,,---,0.00,VWS V14.01,2013-09-29 01:13:00,
2013-09-28 18:18:00,72.9,44.4,30.00,SE,135,2.0,5.6,36,0.00,,---,0.00,VWS V14.01,2013-09-29 01:18:00,
2013-09-28 18:23:00,72.1,43.7,30.00,SSE,158,3.1,3.1,36,0.00,,---,0.00,VWS V14.01,2013-09-29 01:23:00,
2013-09-28 18:28:00,71.8,43.4,30.00,South,180,0.9,5.4,36,0.00,,---,0.00,VWS V14.01,2013-09-29 01:28:00,
2013-09-28 18:33:00,71.2,43.7,30.00,SW,225,0.9,0.9,37,0.00,,---,0.00,VWS V14.01,2013-09-29 01:33:00,
2013-09-28 18:38:00,70.9,44.0,30.00,SE,135,2.2,3.8,38,0.00,,---,0.00,VWS V14.01,2013-09-29 01:38:00,
2013-09-28 18:43:00,70.7,44.5,30.00,SE,135,5.6,5.6,39,0.00,,---,0.00,VWS V14.01,2013-09-29 01:43:00,
2013-09-28 18:48:00,70.2,44.7,30.00,NW,315,2.0,5.6,40,0.00,,---,0.00,VWS V14.01,2013-09-29 01:48:00,
2013-09-28 18:53:00,69.6,44.9,30.00,South,180,2.0,4.9,41,0.00,,---,0.00,VWS V14.01,2013-09-29 01:53:00,
2013-09-28 18:58:00,69.3,45.8,30.00,South,180,1.1,2.5,43,0.00,,---,0.00,VWS V14.01,2013-09-29 01:58:00,
2013-09-28 19:03:00,68.7,45.3,30.00,SSE,158,2.5,3.8,43,0.00,,---,0.00,VWS V14.01,2013-09-29 02:03:00,
2013-09-28 19:08:00,68.4,45.0,30.00,SE,135,2.9,3.4,43,0.00,,---,0.00,VWS V14.01,2013-09-29 02:08:00,
2013-09-28 19:13:00,68.0,45.3,30.00,SSE,158,3.8,4.0,44,0.00,,---,0.00,VWS V14.01,2013-09-29 02:13:00,
2013-09-28 19:18:00,67.8,45.7,30.00,SSE,158,2.5,3.8,45,0.00,,---,0.00,VWS V14.01,2013-09-29 02:18:00,
2013-09-28 19:23:00,67.3,46.4,30.03,West,270,2.5,2.9,47,0.00,,---,0.00,VWS V14.01,2013-09-29 02:23:00,
2013-09-28 19:28:00,66.9,45.5,30.03,South,180,1.6,2.7,46,0.00,,---,0.00,VWS V14.01,2013-09-29 02:28:00,
2013-09-28 19:33:00,66.7,45.9,30.03,West,270,2.5,2.5,47,0.00,,---,0.00,VWS V14.01,2013-09-29 02:33:00,
2013-09-28 19:38:00,66.4,45.6,30.03,SSE,158,0.0,2.5,47,0.00,,---,0.00,VWS V14.01,2013-09-29 02:38:00,
2013-09-28 19:43:00,66.4,45.6,30.03,West,270,0.0,0.9,47,0.00,,---,0.00,VWS V14.01,2013-09-29 02:43:00,
2013-09-28 19:49:00,66.0,45.8,30.03,SSE,158,1.1,1.6,48,0.00,,---,0.00,VWS V14.01,2013-09-29 02:49:00,
2013-09-28 19:54:00,65.8,45.6,30.03,SE,135,0.0,0.0,48,0.00,,---,0.00,VWS V14.01,2013-09-29 02:54:00,
2013-09-28 19:59:00,65.7,45.5,30.03,East,90,0.9,2.9,48,0.00,,---,0.00,VWS V14.01,2013-09-29 02:59:00,
2013-09-28 20:04:00,65.5,45.3,30.03,SE,135,2.0,3.6,48,0.00,,---,0.00,VWS V14.01,2013-09-29 03:04:00,
2013-09-28 20:09:00,65.3,45.7,30.03,ESE,112,1.3,1.3,49,0.00,,---,0.00,VWS V14.01,2013-09-29 03:09:00,
2013-09-28 20:14:00,64.9,45.3,30.03,West,270,1.6,2.9,49,0.00,,---,0.00,VWS V14.01,2013-09-29 03:14:00,
2013-09-28 20:19:00,64.8,46.2,30.03,West,270,0.0,0.0,51,0.00,,---,0.00,VWS V14.01,2013-09-29 03:19:00,
2013-09-28 20:24:00,64.4,45.4,30.03,South,180,0.0,0.0,50,0.00,,---,0.00,VWS V14.01,2013-09-29 03:24:00,
2013-09-28 20:29:00,64.2,45.2,30.03,ESE,112,1.1,1.6,50,0.00,,---,0.00,VWS V14.01,2013-09-29 03:29:00,
2013-09-28 20:34:00,64.2,45.7,30.03,SE,135,0.0,1.1,51,0.00,,---,0.00,VWS V14.01,2013-09-29 03:34:00,
2013-09-28 20:39:00,63.9,45.4,30.03,NNE,22,0.9,0.9,51,0.00,,---,0.00,VWS V14.01,2013-09-29 03:39:00,
2013-09-28 20:45:00,63.7,45.2,30.03,East,90,2.2,2.2,51,0.00,,---,0.00,VWS V14.01,2013-09-29 03:45:00,
2013-09-28 20:50:00,63.5,45.1,30.03,SE,135,1.6,1.6,51,0.00,,---,0.00,VWS V14.01,2013-09-29 03:50:00,
2013-09-28 20:56:00,63.1,45.2,30.03,SW,225,0.0,1.6,52,0.00,,---,0.00,VWS V14.01,2013-09-29 03:56:00,
2013-09-28 21:01:00,63.0,45.1,30.03,ESE,112,0.0,0.0,52,0.00,,---,0.00,VWS V14.01,2013-09-29 04:01:00,
2013-09-28 21:02:00,63.0,45.1,30.03,SE,135,2.0,2.0,52,0.00,,---,0.00,VWS V14.01,2013-09-29 04:02:00,
2013-09-28 21:03:00,63.0,45.1,30.03,SSE,158,2.2,2.2,52,0.00,,---,0.00,VWS V14.01,2013-09-29 04:03:00,
2013-09-28 21:06:00,63.0,45.1,30.03,SE,135,2.2,2.2,52,0.00,,---,0.00,VWS V14.01,2013-09-29 04:06:00,
2013-09-28 21:07:00,63.0,45.1,30.03,SE,135,0.0,2.2,52,0.00,,---,0.00,VWS V14.01,2013-09-29 04:07:00,
2013-09-28 21:12:00,62.8,44.9,30.03,South,180,0.0,1.1,52,0.00,,---,0.00,VWS V14.01,2013-09-29 04:12:00,
2013-09-28 21:17:00,62.6,44.8,30.03,SE,135,0.0,0.9,52,0.00,,---,0.00,VWS V14.01,2013-09-29 04:17:00,
2013-09-28 21:22:00,62.4,45.1,30.03,East,90,0.0,0.0,53,0.00,,---,0.00,VWS V14.01,2013-09-29 04:22:00,
2013-09-28 21:27:00,62.2,45.4,30.03,West,270,0.0,1.3,54,0.00,,---,0.00,VWS V14.01,2013-09-29 04:27:00,
2013-09-28 21:32:00,62.2,44.9,30.03,ENE,68,0.0,0.0,53,0.00,,---,0.00,VWS V14.01,2013-09-29 04:32:00,
2013-09-28 21:37:00,62.1,45.2,30.06,North,0,1.1,2.2,54,0.00,,---,0.00,VWS V14.01,2013-09-29 04:37:00,
2013-09-28 21:42:00,61.9,45.1,30.06,East,90,0.0,1.6,54,0.00,,---,0.00,VWS V14.01,2013-09-29 04:42:00,
2013-09-28 21:47:00,61.7,44.9,30.06,NE,45,0.0,1.6,54,0.00,,---,0.00,VWS V14.01,2013-09-29 04:47:00,
2013-09-28 21:52:00,61.5,45.2,30.03,SSE,158,0.0,0.0,55,0.00,,---,0.00,VWS V14.01,2013-09-29 04:52:00,
2013-09-28 21:57:00,61.3,45.0,30.03,ESE,112,0.0,0.0,55,0.00,,---,0.00,VWS V14.01,2013-09-29 04:57:00,
2013-09-28 22:02:00,61.2,44.9,30.03,NE,45,0.0,0.0,55,0.00,,---,0.00,VWS V14.01,2013-09-29 05:02:00,
2013-09-28 22:07:00,61.0,44.7,30.06,SE,135,0.0,0.0,55,0.00,,---,0.00,VWS V14.01,2013-09-29 05:07:00,
2013-09-28 22:12:00,60.8,44.5,30.06,East,90,0.0,1.3,55,0.00,,---,0.00,VWS V14.01,2013-09-29 05:12:00,
2013-09-28 22:17:00,60.6,44.8,30.06,NNE,22,1.1,1.1,56,0.00,,---,0.00,VWS V14.01,2013-09-29 05:17:00,
2013-09-28 22:22:00,60.4,44.7,30.06,East,90,2.0,2.0,56,0.00,,---,0.00,VWS V14.01,2013-09-29 05:22:00,
2013-09-28 22:27:00,60.3,45.0,30.06,NNE,22,0.0,1.3,57,0.00,,---,0.00,VWS V14.01,2013-09-29 05:27:00,
2013-09-28 22:32:00,60.3,45.0,30.06,East,90,1.3,2.2,57,0.00,,---,0.00,VWS V14.01,2013-09-29 05:32:00,
2013-09-28 22:37:00,60.1,44.8,30.06,East,90,2.5,2.7,57,0.00,,---,0.00,VWS V14.01,2013-09-29 05:37:00,
2013-09-28 22:42:00,60.1,44.8,30.06,East,90,2.2,2.2,57,0.00,,---,0.00,VWS V14.01,2013-09-29 05:42:00,
2013-09-28 22:47:00,60.1,44.8,30.06,ESE,112,0.0,2.7,57,0.00,,---,0.00,VWS V14.01,2013-09-29 05:47:00,
2013-09-28 22:52:00,60.1,45.3,30.06,ESE,112,2.0,2.0,58,0.00,,---,0.00,VWS V14.01,2013-09-29 05:52:00,
2013-09-28 22:57:00,59.7,44.9,30.06,SSE,158,0.0,0.0,58,0.00,,---,0.00,VWS V14.01,2013-09-29 05:57:00,
2013-09-28 23:02:00,59.7,44.9,30.06,SE,135,2.2,2.5,58,0.00,,---,0.00,VWS V14.01,2013-09-29 06:02:00,
2013-09-28 23:08:00,59.7,45.4,30.03,East,90,2.0,2.2,59,0.00,,---,0.00,VWS V14.01,2013-09-29 06:08:00,
2013-09-28 23:13:00,59.7,45.4,30.03,East,90,0.0,2.5,59,0.00,,---,0.00,VWS V14.01,2013-09-29 06:13:00,
2013-09-28 23:18:00,59.5,45.7,30.03,NNW,338,0.0,1.1,60,0.00,,---,0.00,VWS V14.01,2013-09-29 06:18:00,
2013-09-28 23:23:00,59.4,45.5,30.06,NNE,22,0.0,1.3,60,0.00,,---,0.00,VWS V14.01,2013-09-29 06:23:00,
2013-09-28 23:28:00,59.2,45.3,30.06,NNE,22,0.0,0.0,60,0.00,,---,0.00,VWS V14.01,2013-09-29 06:28:00,
2013-09-28 23:33:00,59.2,45.3,30.06,NE,45,0.0,1.1,60,0.00,,---,0.00,VWS V14.01,2013-09-29 06:33:00,
2013-09-28 23:38:00,59.0,45.2,30.06,ENE,68,1.3,1.6,60,0.00,,---,0.00,VWS V14.01,2013-09-29 06:38:00,
2013-09-28 23:43:00,59.0,45.2,30.06,East,90,0.0,1.3,60,0.00,,---,0.00,VWS V14.01,2013-09-29 06:43:00,
2013-09-28 23:48:00,58.8,45.4,30.06,East,90,0.0,1.1,61,0.00,,---,0.00,VWS V14.01,2013-09-29 06:48:00,
2013-09-28 23:53:00,58.8,45.4,30.06,East,90,0.0,0.0,61,0.00,,---,0.00,VWS V14.01,2013-09-29 06:53:00,
2013-09-28 23:58:00,58.6,45.2,30.06,ENE,68,0.0,0.0,61,0.00,,---,0.00,VWS V14.01,2013-09-29 06:58:00,